Time;durP1;ratioP1;P1;durP2;ratioP2;P2;SDS_P1;SDS_P2;PMS_P1;PMS_P2;Temp;Humidity;BMP_temperature;BMP_pressure;BME280_temperature;BME280_humidity;BME280_pressure;Samples;Min_cycle;Max_cycle;Signal;HPM_P1;HPM_P2
2022/04/09 00:00:47;;;;;;;8.18;1.80;;;;;;;;;;5050841;28;20135;-65
2022/04/09 00:03:13;;;;;;;7.88;1.92;;;;;;;;;;5050940;28;20080;-66
2022/04/09 00:05:39;;;;;;;7.07;1.85;;;;;;;;;;5048722;28;20034;-65
2022/04/09 00:08:05;;;;;;;8.90;1.80;;;;;;;;;;5053863;28;20393;-65
2022/04/09 00:10:31;;;;;;;14.90;2.08;;;;;;;;;;5052947;28;20140;-65
2022/04/09 00:12:58;;;;;;;10.45;1.95;;;;;;;;;;5049755;28;20120;-66
2022/04/09 00:15:24;;;;;;;11.40;2.75;;;;;;;;;;5047090;28;20467;-65
2022/04/09 00:17:50;;;;;;;7.20;1.75;;;;;;;;;;5048811;28;20095;-65
2022/04/09 00:20:16;;;;;;;11.07;1.95;;;;;;;;;;5050787;28;20047;-65
2022/04/09 00:22:42;;;;;;;7.70;1.80;;;;;;;;;;5051882;28;20572;-65
2022/04/09 00:25:10;;;;;;;8.32;2.00;;;;;;;;;;5053181;28;20037;-65
2022/04/09 00:27:36;;;;;;;10.25;1.80;;;;;;;;;;5057398;28;20168;-65
2022/04/09 00:30:07;;;;;;;10.15;1.77;;;;;;;;;;5045703;28;20051;-65
2022/04/09 00:32:34;;;;;;;12.15;1.98;;;;;;;;;;5052307;28;20563;-65
2022/04/09 00:35:01;;;;;;;9.15;1.77;;;;;;;;;;5052086;28;20037;-65
2022/04/09 00:37:29;;;;;;;13.73;2.28;;;;;;;;;;5051671;28;20041;-65
2022/04/09 00:39:55;;;;;;;8.65;1.83;;;;;;;;;;5051694;28;20041;-65
2022/04/09 00:42:21;;;;;;;7.55;1.52;;;;;;;;;;5050428;28;20083;-65
2022/04/09 00:44:47;;;;;;;7.45;1.67;;;;;;;;;;5052246;28;20037;-65
2022/04/09 00:47:13;;;;;;;7.97;1.48;;;;;;;;;;5053400;28;20500;-65
2022/04/09 00:49:40;;;;;;;6.50;1.55;;;;;;;;;;5051722;28;20481;-65
2022/04/09 00:52:10;;;;;;;8.80;1.90;;;;;;;;;;5053834;28;20052;-65
2022/04/09 00:54:39;;;;;;;6.53;1.42;;;;;;;;;;5053642;28;20052;-65
2022/04/09 00:57:06;;;;;;;8.57;1.77;;;;;;;;;;5052695;28;20062;-65
2022/04/09 00:59:34;;;;;;;8.90;1.77;;;;;;;;;;5040952;28;20046;-65
2022/04/09 01:02:00;;;;;;;5.22;1.40;;;;;;;;;;5052384;28;20041;-65
2022/04/09 01:04:27;;;;;;;7.53;1.70;;;;;;;;;;5053848;28;20040;-65
2022/04/09 01:06:55;;;;;;;7.80;1.50;;;;;;;;;;5039508;28;20046;-65
2022/04/09 01:09:21;;;;;;;6.47;1.65;;;;;;;;;;5041380;28;20077;-65
2022/04/09 01:11:47;;;;;;;5.50;1.55;;;;;;;;;;5053091;28;20398;-65
2022/04/09 01:14:14;;;;;;;4.63;1.50;;;;;;;;;;5029231;28;20036;-65
2022/04/09 01:16:40;;;;;;;9.10;1.88;;;;;;;;;;5042461;28;20081;-65
2022/04/09 01:19:06;;;;;;;6.93;1.73;;;;;;;;;;5050120;28;20037;-65
2022/04/09 01:21:32;;;;;;;4.95;1.50;;;;;;;;;;5037235;28;20490;-65
2022/04/09 01:24:00;;;;;;;7.43;1.77;;;;;;;;;;5048387;28;20069;-65
2022/04/09 01:26:27;;;;;;;9.63;1.92;;;;;;;;;;5038975;28;20581;-65
2022/04/09 01:28:53;;;;;;;5.32;1.50;;;;;;;;;;5080560;28;20440;-65
2022/04/09 01:31:19;;;;;;;7.35;1.63;;;;;;;;;;5045838;28;20485;-65
2022/04/09 01:33:45;;;;;;;10.00;1.88;;;;;;;;;;5043835;28;20045;-65
2022/04/09 01:36:14;;;;;;;9.07;1.48;;;;;;;;;;5048513;28;20053;-65
2022/04/09 01:38:40;;;;;;;10.13;2.00;;;;;;;;;;5058078;28;20485;-65
2022/04/09 01:41:06;;;;;;;10.00;1.77;;;;;;;;;;5045031;28;20049;-65
2022/04/09 01:43:32;;;;;;;9.15;1.45;;;;;;;;;;5050842;28;20163;-65
2022/04/09 01:45:59;;;;;;;6.80;1.50;;;;;;;;;;5052930;28;20394;-65
2022/04/09 01:48:25;;;;;;;7.10;1.42;;;;;;;;;;5050484;28;20068;-65
2022/04/09 01:50:51;;;;;;;9.02;1.63;;;;;;;;;;5051009;28;20477;-65
2022/04/09 01:53:17;;;;;;;7.80;1.27;;;;;;;;;;5052615;28;20041;-65
2022/04/09 01:55:43;;;;;;;6.03;1.60;;;;;;;;;;5050766;28;20098;-65
2022/04/09 01:58:09;;;;;;;8.40;1.27;;;;;;;;;;5047383;28;20668;-65
2022/04/09 02:00:35;;;;;;;10.32;1.98;;;;;;;;;;5048894;28;20175;-65
2022/04/09 02:03:02;;;;;;;5.30;1.42;;;;;;;;;;5052107;28;20037;-65
2022/04/09 02:05:28;;;;;;;5.53;1.40;;;;;;;;;;5052079;28;20064;-65
2022/04/09 02:07:54;;;;;;;9.10;1.83;;;;;;;;;;5049617;28;20052;-65
2022/04/09 02:10:20;;;;;;;9.82;1.70;;;;;;;;;;5043701;28;20517;-65
2022/04/09 02:12:47;;;;;;;7.03;1.38;;;;;;;;;;5049153;28;20363;-65
2022/04/09 02:15:15;;;;;;;9.45;2.17;;;;;;;;;;5041934;28;20037;-65
2022/04/09 02:17:42;;;;;;;12.15;2.00;;;;;;;;;;5058859;28;20075;-65
2022/04/09 02:20:10;;;;;;;9.05;1.60;;;;;;;;;;5046324;28;20398;-65
2022/04/09 02:22:37;;;;;;;13.98;2.67;;;;;;;;;;5048830;28;20037;-65
2022/04/09 02:25:03;;;;;;;11.45;1.80;;;;;;;;;;5051779;28;20040;-64
2022/04/09 02:27:30;;;;;;;6.65;1.67;;;;;;;;;;5048928;28;20124;-65
2022/04/09 02:29:56;;;;;;;8.82;1.83;;;;;;;;;;5049431;28;20079;-65
2022/04/09 02:32:22;;;;;;;7.82;1.50;;;;;;;;;;5042257;28;20041;-65
2022/04/09 02:34:49;;;;;;;13.30;2.10;;;;;;;;;;5046554;28;20037;-65
2022/04/09 02:37:16;;;;;;;7.55;2.00;;;;;;;;;;5050539;28;20489;-65
2022/04/09 02:39:43;;;;;;;10.45;1.60;;;;;;;;;;5051636;28;20072;-65
2022/04/09 02:42:10;;;;;;;8.95;2.00;;;;;;;;;;5040746;28;20049;-65
2022/04/09 02:44:36;;;;;;;9.43;1.83;;;;;;;;;;5050439;28;20477;-65
2022/04/09 02:47:02;;;;;;;11.10;1.83;;;;;;;;;;5042715;28;20071;-65
2022/04/09 02:49:28;;;;;;;6.13;1.80;;;;;;;;;;5045769;28;20485;-65
2022/04/09 02:51:54;;;;;;;11.57;1.90;;;;;;;;;;5051618;28;20036;-65
2022/04/09 02:54:20;;;;;;;8.90;1.75;;;;;;;;;;5039528;28;20045;-65
2022/04/09 02:56:46;;;;;;;7.35;1.40;;;;;;;;;;5050896;28;20045;-65
2022/04/09 02:59:13;;;;;;;8.32;1.45;;;;;;;;;;5046296;28;20053;-65
2022/04/09 03:01:40;;;;;;;8.90;1.42;;;;;;;;;;5050101;28;20377;-65
2022/04/09 03:04:07;;;;;;;14.85;2.05;;;;;;;;;;5043651;28;20084;-65
2022/04/09 03:06:33;;;;;;;5.28;1.60;;;;;;;;;;5044086;28;20052;-65
2022/04/09 03:08:59;;;;;;;9.65;1.60;;;;;;;;;;5051000;28;20051;-65
2022/04/09 03:11:25;;;;;;;8.73;1.60;;;;;;;;;;5054879;28;20103;-65
2022/04/09 03:13:51;;;;;;;8.25;1.48;;;;;;;;;;5050741;28;20049;-65
2022/04/09 03:16:17;;;;;;;5.60;1.50;;;;;;;;;;5051401;28;20167;-65
2022/04/09 03:18:43;;;;;;;8.43;1.60;;;;;;;;;;5051312;28;20049;-65
2022/04/09 03:21:09;;;;;;;6.30;1.60;;;;;;;;;;5051199;28;20048;-65
2022/04/09 03:23:35;;;;;;;6.13;1.30;;;;;;;;;;5049575;28;20052;-65
2022/04/09 03:26:02;;;;;;;5.90;1.52;;;;;;;;;;5049972;28;20048;-65
2022/04/09 03:28:28;;;;;;;4.22;1.30;;;;;;;;;;5048493;28;20045;-65
2022/04/09 03:30:54;;;;;;;6.93;1.20;;;;;;;;;;5051462;28;20077;-65
2022/04/09 03:33:20;;;;;;;10.18;1.30;;;;;;;;;;5049172;28;20032;-65
2022/04/09 03:35:47;;;;;;;6.70;1.35;;;;;;;;;;5055660;28;20064;-65
2022/04/09 03:38:13;;;;;;;8.45;1.65;;;;;;;;;;5055069;28;20045;-65
2022/04/09 03:40:40;;;;;;;6.55;1.52;;;;;;;;;;5053378;28;20107;-65
2022/04/09 03:43:06;;;;;;;8.43;1.52;;;;;;;;;;5047810;28;20059;-65
2022/04/09 03:45:32;;;;;;;11.73;2.03;;;;;;;;;;5046494;28;20072;-65
2022/04/09 03:47:58;;;;;;;9.38;1.65;;;;;;;;;;5054919;28;20036;-65
2022/04/09 03:50:24;;;;;;;9.00;1.88;;;;;;;;;;5054141;28;20044;-65
2022/04/09 03:52:50;;;;;;;11.50;2.13;;;;;;;;;;5055217;28;20099;-65
2022/04/09 03:55:16;;;;;;;10.85;2.15;;;;;;;;;;5053656;28;20041;-65
2022/04/09 03:57:42;;;;;;;6.85;1.60;;;;;;;;;;5045469;28;20045;-64
2022/04/09 04:00:09;;;;;;;7.75;1.77;;;;;;;;;;5054555;28;20041;-65
2022/04/09 04:02:36;;;;;;;9.82;1.50;;;;;;;;;;5045719;28;20036;-65
2022/04/09 04:05:03;;;;;;;7.97;1.50;;;;;;;;;;5054434;28;20033;-65
2022/04/09 04:07:33;;;;;;;11.30;2.20;;;;;;;;;;5051416;28;20052;-65
2022/04/09 04:10:09;;;;;;;14.55;2.20;;;;;;;;;;5045794;28;20509;-65
2022/04/09 04:12:35;;;;;;;6.40;1.35;;;;;;;;;;5051488;28;20116;-65
2022/04/09 04:15:02;;;;;;;8.73;2.03;;;;;;;;;;5052527;28;20064;-65
2022/04/09 04:17:38;;;;;;;10.75;1.88;;;;;;;;;;5049946;28;20041;-65
2022/04/09 04:20:05;;;;;;;7.03;1.48;;;;;;;;;;5082441;28;20166;-65
2022/04/09 04:22:31;;;;;;;6.57;1.35;;;;;;;;;;5049144;28;20037;-65
2022/04/09 04:24:57;;;;;;;6.95;1.52;;;;;;;;;;5048826;28;20077;-65
2022/04/09 04:27:23;;;;;;;5.03;1.20;;;;;;;;;;5024152;28;20098;-65
2022/04/09 04:29:49;;;;;;;5.72;1.35;;;;;;;;;;5054783;28;20041;-65
2022/04/09 04:32:15;;;;;;;6.55;1.25;;;;;;;;;;5047250;28;20120;-65
2022/04/09 04:34:41;;;;;;;7.97;1.45;;;;;;;;;;5054379;28;20091;-65
2022/04/09 04:37:07;;;;;;;4.90;1.27;;;;;;;;;;5050954;28;20087;-65
2022/04/09 04:39:33;;;;;;;9.15;1.55;;;;;;;;;;5051921;28;20091;-65
2022/04/09 04:41:59;;;;;;;6.57;1.45;;;;;;;;;;5049937;28;20049;-65
2022/04/09 04:44:25;;;;;;;10.48;1.85;;;;;;;;;;5052815;28;20098;-65
2022/04/09 04:46:51;;;;;;;8.50;1.75;;;;;;;;;;5053429;28;20037;-65
2022/04/09 04:49:18;;;;;;;6.45;1.50;;;;;;;;;;5054416;28;20123;-65
2022/04/09 04:51:44;;;;;;;7.07;1.48;;;;;;;;;;5063546;28;20051;-65
2022/04/09 04:54:10;;;;;;;5.90;1.58;;;;;;;;;;5052128;28;20054;-65
2022/04/09 04:56:36;;;;;;;10.98;2.20;;;;;;;;;;5052577;28;20037;-65
2022/04/09 04:59:02;;;;;;;9.57;2.60;;;;;;;;;;5050075;28;20075;-65
2022/04/09 05:01:28;;;;;;;8.27;1.95;;;;;;;;;;5047620;28;20052;-65
2022/04/09 05:03:54;;;;;;;6.13;1.35;;;;;;;;;;5043170;28;20691;-65
2022/04/09 05:06:21;;;;;;;5.68;1.30;;;;;;;;;;5052773;28;20076;-65
2022/04/09 05:08:47;;;;;;;8.95;1.92;;;;;;;;;;5046891;28;20043;-65
2022/04/09 05:11:13;;;;;;;7.85;1.63;;;;;;;;;;5051012;28;20049;-65
2022/04/09 05:13:39;;;;;;;4.80;1.27;;;;;;;;;;5051704;28;20037;-65
2022/04/09 05:16:05;;;;;;;9.88;1.48;;;;;;;;;;5052254;28;20037;-65
2022/04/09 05:18:32;;;;;;;7.47;1.55;;;;;;;;;;5053093;28;20040;-65
2022/04/09 05:20:58;;;;;;;8.23;1.80;;;;;;;;;;5052856;28;20051;-65
2022/04/09 05:23:24;;;;;;;7.03;2.25;;;;;;;;;;5051138;28;20091;-65
2022/04/09 05:25:50;;;;;;;6.75;1.50;;;;;;;;;;5045173;28;20041;-65
2022/04/09 05:28:16;;;;;;;6.50;1.80;;;;;;;;;;5052518;28;20120;-65
2022/04/09 05:30:46;;;;;;;7.78;1.60;;;;;;;;;;5053423;28;20127;-65
2022/04/09 05:33:12;;;;;;;8.73;2.05;;;;;;;;;;5050608;28;20057;-65
2022/04/09 05:35:38;;;;;;;9.07;1.50;;;;;;;;;;5052273;28;20033;-65
2022/04/09 05:38:05;;;;;;;8.13;1.55;;;;;;;;;;5046196;28;20486;-65
2022/04/09 05:40:31;;;;;;;9.93;1.75;;;;;;;;;;5051638;28;20043;-65
2022/04/09 05:42:57;;;;;;;11.63;1.95;;;;;;;;;;5051004;28;20102;-65
2022/04/09 05:45:24;;;;;;;11.75;1.90;;;;;;;;;;5051501;28;20040;-65
2022/04/09 05:47:50;;;;;;;9.70;2.17;;;;;;;;;;5050574;28;20044;-65
2022/04/09 05:50:17;;;;;;;10.50;1.95;;;;;;;;;;5051416;28;20401;-65
2022/04/09 05:52:43;;;;;;;10.90;2.30;;;;;;;;;;5050836;28;20401;-65
2022/04/09 05:55:10;;;;;;;13.43;2.20;;;;;;;;;;5044110;28;20041;-65
2022/04/09 05:57:36;;;;;;;11.30;1.90;;;;;;;;;;5051026;28;20044;-65
2022/04/09 06:00:04;;;;;;;7.78;1.88;;;;;;;;;;5049496;28;20053;-65
2022/04/09 06:02:30;;;;;;;13.50;2.28;;;;;;;;;;5048851;28;20178;-65
2022/04/09 06:04:57;;;;;;;10.13;2.13;;;;;;;;;;5047853;28;20092;-65
2022/04/09 06:07:24;;;;;;;12.98;2.53;;;;;;;;;;5043638;28;20056;-65
2022/04/09 06:09:52;;;;;;;8.90;2.13;;;;;;;;;;5048454;28;20041;-65
2022/04/09 06:12:18;;;;;;;12.20;2.13;;;;;;;;;;5051779;28;20381;-65
2022/04/09 06:14:44;;;;;;;11.63;1.90;;;;;;;;;;5044524;28;20083;-65
2022/04/09 06:17:10;;;;;;;6.88;1.50;;;;;;;;;;5050543;28;20071;-65
2022/04/09 06:19:36;;;;;;;9.30;2.20;;;;;;;;;;5044386;28;20408;-65
2022/04/09 06:22:02;;;;;;;9.52;1.80;;;;;;;;;;5058764;28;20044;-65
2022/04/09 06:24:28;;;;;;;9.32;2.53;;;;;;;;;;5046779;28;20124;-65
2022/04/09 06:26:54;;;;;;;11.50;2.03;;;;;;;;;;5049286;28;20083;-66
2022/04/09 06:29:20;;;;;;;8.10;2.08;;;;;;;;;;5046995;28;20075;-65
2022/04/09 06:31:47;;;;;;;8.05;2.17;;;;;;;;;;5049876;28;20041;-65
2022/04/09 06:34:16;;;;;;;12.95;2.83;;;;;;;;;;5046117;28;20144;-65
2022/04/09 06:36:42;;;;;;;9.60;2.60;;;;;;;;;;5048636;28;20123;-65
2022/04/09 06:39:08;;;;;;;7.88;2.42;;;;;;;;;;5051998;28;20393;-65
2022/04/09 06:41:35;;;;;;;7.47;1.95;;;;;;;;;;5049138;28;20552;-65
2022/04/09 06:44:01;;;;;;;7.47;1.77;;;;;;;;;;5046303;28;20559;-66
2022/04/09 06:46:27;;;;;;;11.23;1.90;;;;;;;;;;5042120;28;20068;-67
2022/04/09 06:48:53;;;;;;;3.97;1.15;;;;;;;;;;5048842;28;20033;-67
2022/04/09 06:51:19;;;;;;;8.32;1.50;;;;;;;;;;5056369;28;20041;-66
2022/04/09 06:53:45;;;;;;;6.10;1.42;;;;;;;;;;5060559;28;20516;-66
2022/04/09 06:56:11;;;;;;;5.32;1.80;;;;;;;;;;5059747;28;20512;-66
2022/04/09 06:58:37;;;;;;;8.52;1.60;;;;;;;;;;5064535;28;20552;-67
2022/04/09 07:01:04;;;;;;;7.53;1.85;;;;;;;;;;5043195;28;20049;-67
2022/04/09 07:03:30;;;;;;;7.03;1.73;;;;;;;;;;5048400;28;20087;-67
2022/04/09 07:05:56;;;;;;;6.82;1.58;;;;;;;;;;5041845;28;20044;-66
2022/04/09 07:08:22;;;;;;;9.23;1.80;;;;;;;;;;5045126;28;20041;-67
2022/04/09 07:10:48;;;;;;;6.00;1.60;;;;;;;;;;5040155;28;20041;-66
2022/04/09 07:13:14;;;;;;;10.60;1.90;;;;;;;;;;5046985;28;20033;-67
2022/04/09 07:15:40;;;;;;;4.65;1.60;;;;;;;;;;5048636;28;20041;-66
2022/04/09 07:18:06;;;;;;;6.97;1.60;;;;;;;;;;5081843;28;20094;-67
2022/04/09 07:20:36;;;;;;;8.40;2.08;;;;;;;;;;5048544;28;20056;-66
2022/04/09 07:23:02;;;;;;;9.20;2.40;;;;;;;;;;5048950;28;20963;-67
2022/04/09 07:25:29;;;;;;;11.32;2.08;;;;;;;;;;5047955;28;20398;-66
2022/04/09 07:27:55;;;;;;;8.68;1.75;;;;;;;;;;5042391;28;20042;-67
2022/04/09 07:30:21;;;;;;;9.35;1.70;;;;;;;;;;5044268;28;20533;-67
2022/04/09 07:32:48;;;;;;;7.68;1.90;;;;;;;;;;5049778;28;20497;-67
2022/04/09 07:35:15;;;;;;;8.07;1.83;;;;;;;;;;5046232;28;20052;-66
2022/04/09 07:37:45;;;;;;;9.65;1.35;;;;;;;;;;5048871;28;20036;-67
2022/04/09 07:40:13;;;;;;;8.32;1.58;;;;;;;;;;5045257;28;20037;-67
2022/04/09 07:42:40;;;;;;;5.65;1.45;;;;;;;;;;5041439;28;20045;-67
2022/04/09 07:45:06;;;;;;;11.93;1.70;;;;;;;;;;5050475;28;20041;-67
2022/04/09 07:47:32;;;;;;;8.18;1.65;;;;;;;;;;5042941;28;20049;-67
2022/04/09 07:50:00;;;;;;;12.48;1.98;;;;;;;;;;5042769;28;20045;-67
2022/04/09 07:52:27;;;;;;;5.75;1.30;;;;;;;;;;5049575;28;20489;-67
2022/04/09 07:54:56;;;;;;;6.95;1.65;;;;;;;;;;5048623;28;20045;-67
2022/04/09 07:57:23;;;;;;;9.35;1.92;;;;;;;;;;5049103;28;20115;-67
2022/04/09 07:59:49;;;;;;;10.90;2.25;;;;;;;;;;5048616;28;20048;-67
2022/04/09 08:02:15;;;;;;;10.98;2.28;;;;;;;;;;5046010;28;20069;-68
2022/04/09 08:04:42;;;;;;;9.48;2.00;;;;;;;;;;5051105;28;20033;-67
2022/04/09 08:07:08;;;;;;;7.93;1.83;;;;;;;;;;5048307;28;20119;-67
2022/04/09 08:09:34;;;;;;;8.80;2.17;;;;;;;;;;5042403;28;20044;-67
2022/04/09 08:12:00;;;;;;;10.55;2.22;;;;;;;;;;5046717;28;20076;-68
2022/04/09 08:14:26;;;;;;;12.80;1.80;;;;;;;;;;5044777;28;20453;-67
2022/04/09 08:16:52;;;;;;;8.90;1.90;;;;;;;;;;5050645;28;20040;-67
2022/04/09 08:19:20;;;;;;;6.15;1.90;;;;;;;;;;5049931;28;20045;-67
2022/04/09 08:21:46;;;;;;;9.88;1.90;;;;;;;;;;5052691;28;20045;-67
2022/04/09 08:24:12;;;;;;;9.05;2.08;;;;;;;;;;5046451;28;20041;-67
2022/04/09 08:26:38;;;;;;;6.00;1.63;;;;;;;;;;5047419;28;20087;-67
2022/04/09 08:29:05;;;;;;;9.52;2.10;;;;;;;;;;5053055;28;20120;-68
2022/04/09 08:31:31;;;;;;;7.93;1.73;;;;;;;;;;5053120;28;20094;-67
2022/04/09 08:33:58;;;;;;;10.20;2.00;;;;;;;;;;5046530;28;20041;-67
2022/04/09 08:36:24;;;;;;;6.50;1.52;;;;;;;;;;5052597;28;20048;-67
2022/04/09 08:38:51;;;;;;;6.03;1.38;;;;;;;;;;5053226;28;20530;-67
2022/04/09 08:41:17;;;;;;;6.00;1.42;;;;;;;;;;5052177;28;20493;-65
2022/04/09 08:43:43;;;;;;;9.63;1.52;;;;;;;;;;5048626;28;20078;-67
2022/04/09 08:46:09;;;;;;;8.90;2.13;;;;;;;;;;5048279;28;20661;-67
2022/04/09 08:48:38;;;;;;;10.23;1.88;;;;;;;;;;5034000;28;20508;-68
2022/04/09 08:51:04;;;;;;;6.80;2.05;;;;;;;;;;5045953;28;20045;-67
2022/04/09 08:53:30;;;;;;;10.50;2.17;;;;;;;;;;5052630;28;20041;-67
2022/04/09 08:55:56;;;;;;;7.63;1.67;;;;;;;;;;5049629;28;20069;-67
2022/04/09 08:58:22;;;;;;;5.32;1.55;;;;;;;;;;5045725;28;20048;-66
2022/04/09 09:00:48;;;;;;;8.98;2.40;;;;;;;;;;5059436;28;20041;-66
2022/04/09 09:03:15;;;;;;;7.85;2.58;;;;;;;;;;5028634;28;20385;-65
2022/04/09 09:05:45;;;;;;;8.68;3.13;;;;;;;;;;5052090;28;20037;-66
2022/04/09 09:08:11;;;;;;;7.18;2.45;;;;;;;;;;5051008;28;20041;-66
2022/04/09 09:10:39;;;;;;;10.07;2.97;;;;;;;;;;5032643;28;20123;-66
2022/04/09 09:13:05;;;;;;;11.20;3.42;;;;;;;;;;5048593;28;20073;-66
2022/04/09 09:15:45;;;;;;;10.40;2.88;;;;;;;;;;5046922;28;20069;-66
2022/04/09 09:18:17;;;;;;;8.27;2.40;;;;;;;;;;5051369;28;20086;-66
2022/04/09 09:21:04;;;;;;;12.60;3.08;;;;;;;;;;5037168;28;20098;-66
2022/04/09 09:23:31;;;;;;;11.35;3.83;;;;;;;;;;5046624;28;20044;-66
2022/04/09 09:25:58;;;;;;;14.50;4.68;;;;;;;;;;5045286;28;20037;-66
2022/04/09 09:28:24;;;;;;;20.38;4.72;;;;;;;;;;5047432;28;20037;-66
2022/04/09 09:30:50;;;;;;;7.35;2.05;;;;;;;;;;5051611;28;20045;-66
2022/04/09 09:33:17;;;;;;;11.43;2.03;;;;;;;;;;5046925;28;20047;-66
2022/04/09 09:35:47;;;;;;;6.50;1.40;;;;;;;;;;5046884;28;20389;-66
2022/04/09 09:38:19;;;;;;;9.27;2.25;;;;;;;;;;5051611;28;20201;-66
2022/04/09 09:40:46;;;;;;;7.22;1.50;;;;;;;;;;5048744;28;20504;-66
2022/04/09 09:43:18;;;;;;;9.55;1.60;;;;;;;;;;5065641;28;20393;-66
2022/04/09 09:45:45;;;;;;;10.90;1.90;;;;;;;;;;5049223;28;20112;-66
2022/04/09 09:48:21;;;;;;;8.05;1.30;;;;;;;;;;5053111;28;20040;-66
2022/04/09 09:50:47;;;;;;;12.88;1.90;;;;;;;;;;5051504;28;20500;-67
2022/04/09 09:53:14;;;;;;;8.32;2.08;;;;;;;;;;5051637;28;20041;-67
2022/04/09 09:55:46;;;;;;;9.10;2.17;;;;;;;;;;5044506;28;20481;-67
2022/04/09 09:58:16;;;;;;;11.27;2.05;;;;;;;;;;5044022;28;20048;-67
2022/04/09 10:00:43;;;;;;;11.00;2.13;;;;;;;;;;5051126;28;20047;-67
2022/04/09 10:03:10;;;;;;;10.20;1.65;;;;;;;;;;5050279;28;20115;-67
2022/04/09 10:05:38;;;;;;;5.32;1.35;;;;;;;;;;5050724;28;20115;-67
2022/04/09 10:08:05;;;;;;;3.83;1.10;;;;;;;;;;5046389;28;20038;-66
2022/04/09 10:10:34;;;;;;;4.65;1.33;;;;;;;;;;5050631;28;20127;-66
2022/04/09 10:13:02;;;;;;;5.50;1.50;;;;;;;;;;5035113;28;20413;-66
2022/04/09 10:15:29;;;;;;;6.15;1.50;;;;;;;;;;5081994;28;20055;-66
2022/04/09 10:17:59;;;;;;;8.68;1.58;;;;;;;;;;5051164;28;20044;-66
2022/04/09 10:20:25;;;;;;;8.73;1.42;;;;;;;;;;5047021;28;20056;-65
2022/04/09 10:22:53;;;;;;;5.53;1.40;;;;;;;;;;5049507;28;20041;-66
2022/04/09 10:25:20;;;;;;;6.57;1.77;;;;;;;;;;5050904;28;20037;-65
2022/04/09 10:27:52;;;;;;;7.28;1.80;;;;;;;;;;5051211;28;20045;-66
2022/04/09 10:30:23;;;;;;;8.30;1.40;;;;;;;;;;5043214;28;20516;-66
2022/04/09 10:32:52;;;;;;;6.93;1.60;;;;;;;;;;5050215;28;20056;-66
2022/04/09 10:35:25;;;;;;;5.40;1.50;;;;;;;;;;5048419;28;20087;-66
2022/04/09 10:38:07;;;;;;;5.80;1.10;;;;;;;;;;5032840;28;20056;-66
2022/04/09 10:40:33;;;;;;;5.80;1.17;;;;;;;;;;5048704;28;20055;-66
2022/04/09 10:43:01;;;;;;;5.57;1.50;;;;;;;;;;5047505;28;20143;-66
2022/04/09 10:45:30;;;;;;;4.68;1.30;;;;;;;;;;5049213;28;20059;-66
2022/04/09 10:48:07;;;;;;;6.07;1.67;;;;;;;;;;5047927;28;20037;-66
2022/04/09 10:50:59;;;;;;;8.02;2.00;;;;;;;;;;5047734;28;20098;-66
2022/04/09 10:53:30;;;;;;;4.28;1.30;;;;;;;;;;5077759;28;20059;-66
2022/04/09 10:56:15;;;;;;;4.78;1.52;;;;;;;;;;5051010;28;20033;-66
2022/04/09 10:59:00;;;;;;;7.90;1.55;;;;;;;;;;5079194;28;20432;-66
2022/04/09 11:01:48;;;;;;;6.88;1.50;;;;;;;;;;5079505;28;20032;-66
2022/04/09 11:04:31;;;;;;;6.57;1.48;;;;;;;;;;5036205;28;20262;-66
2022/04/09 11:07:00;;;;;;;7.15;1.30;;;;;;;;;;5073214;28;20125;-66
2022/04/09 11:09:27;;;;;;;9.07;1.88;;;;;;;;;;5045419;28;20163;-66
2022/04/09 11:12:02;;;;;;;9.43;1.98;;;;;;;;;;5043396;28;20045;-66
2022/04/09 11:14:28;;;;;;;8.30;1.90;;;;;;;;;;5047358;28;20059;-66
2022/04/09 11:16:55;;;;;;;12.13;2.13;;;;;;;;;;5045270;28;20072;-65
2022/04/09 11:19:21;;;;;;;10.50;1.42;;;;;;;;;;5048839;28;20477;-65
2022/04/09 11:21:51;;;;;;;5.60;1.55;;;;;;;;;;5043869;28;20037;-65
2022/04/09 11:24:17;;;;;;;5.18;1.40;;;;;;;;;;5045841;28;20520;-65
2022/04/09 11:26:54;;;;;;;3.08;1.20;;;;;;;;;;5054332;28;20045;-66
2022/04/09 11:29:20;;;;;;;6.72;1.50;;;;;;;;;;5048773;28;20072;-66
2022/04/09 11:31:47;;;;;;;5.00;1.65;;;;;;;;;;5028901;28;20163;-65
2022/04/09 11:34:13;;;;;;;6.50;1.80;;;;;;;;;;5049352;28;20541;-65
2022/04/09 11:36:40;;;;;;;7.53;1.65;;;;;;;;;;5047252;28;20049;-65
2022/04/09 11:39:06;;;;;;;5.55;1.30;;;;;;;;;;5045553;28;20072;-65
2022/04/09 11:41:32;;;;;;;3.92;0.68;;;;;;;;;;5049544;28;20064;-65
2022/04/09 11:44:00;;;;;;;2.58;0.90;;;;;;;;;;5047263;28;20073;-65
2022/04/09 11:46:31;;;;;;;2.22;0.50;;;;;;;;;;5050206;28;20045;-65
2022/04/09 11:49:01;;;;;;;5.15;0.88;;;;;;;;;;5047003;28;20068;-65
2022/04/09 11:51:28;;;;;;;3.58;0.80;;;;;;;;;;5053544;28;20045;-65
2022/04/09 11:54:13;;;;;;;3.75;1.30;;;;;;;;;;5048070;28;20045;-65
2022/04/09 11:56:40;;;;;;;6.85;1.45;;;;;;;;;;5052413;28;20048;-65
2022/04/09 11:59:13;;;;;;;6.55;1.77;;;;;;;;;;5048231;28;20095;-65
2022/04/09 12:01:40;;;;;;;6.85;1.55;;;;;;;;;;5053351;28;20088;-65
2022/04/09 12:04:06;;;;;;;7.68;1.40;;;;;;;;;;5053296;28;20511;-65
2022/04/09 12:06:32;;;;;;;6.97;1.10;;;;;;;;;;5051021;28;20474;-66
2022/04/09 12:08:58;;;;;;;5.53;1.40;;;;;;;;;;5051470;28;20075;-65
2022/04/09 12:11:24;;;;;;;8.98;1.80;;;;;;;;;;5049026;28;20045;-63
2022/04/09 12:13:52;;;;;;;5.65;1.30;;;;;;;;;;5050482;28;20086;-65
2022/04/09 12:16:18;;;;;;;5.88;1.85;;;;;;;;;;5051839;28;20373;-65
2022/04/09 12:18:45;;;;;;;7.93;1.58;;;;;;;;;;5050406;28;20037;-65
2022/04/09 12:21:31;;;;;;;9.27;1.77;;;;;;;;;;5051887;28;20455;-65
2022/04/09 12:24:01;;;;;;;7.18;1.40;;;;;;;;;;5045367;28;20119;-65
2022/04/09 12:26:28;;;;;;;6.38;0.93;;;;;;;;;;5052544;28;20036;-65
2022/04/09 12:29:09;;;;;;;3.97;1.17;;;;;;;;;;5050729;28;20091;-65
2022/04/09 12:31:39;;;;;;;8.45;1.67;;;;;;;;;;5053053;28;20072;-65
2022/04/09 12:34:05;;;;;;;6.03;1.20;;;;;;;;;;5052168;28;20045;-65
2022/04/09 12:36:32;;;;;;;4.65;0.85;;;;;;;;;;5035900;28;20493;-65
2022/04/09 12:38:58;;;;;;;3.53;1.15;;;;;;;;;;5048245;28;20045;-65
2022/04/09 12:41:24;;;;;;;4.72;1.25;;;;;;;;;;5046258;28;20057;-66
2022/04/09 12:43:52;;;;;;;4.55;1.35;;;;;;;;;;5049151;28;20041;-65
2022/04/09 12:46:19;;;;;;;6.35;1.38;;;;;;;;;;5053223;28;20044;-65
2022/04/09 12:48:46;;;;;;;7.40;1.50;;;;;;;;;;5052575;28;20052;-66
2022/04/09 12:51:14;;;;;;;9.20;1.77;;;;;;;;;;5052478;28;20064;-66
2022/04/09 12:53:41;;;;;;;6.22;2.22;;;;;;;;;;5049943;28;20424;-66
2022/04/09 12:56:11;;;;;;;12.63;2.63;;;;;;;;;;5052443;28;20053;-65
2022/04/09 12:58:37;;;;;;;12.07;2.30;;;;;;;;;;5047969;28;20489;-66
2022/04/09 13:01:04;;;;;;;10.52;2.13;;;;;;;;;;5053695;28;20051;-65
2022/04/09 13:03:30;;;;;;;9.35;1.77;;;;;;;;;;5032083;28;20056;-66
2022/04/09 13:05:57;;;;;;;8.82;2.35;;;;;;;;;;5045529;28;20048;-66
2022/04/09 13:08:23;;;;;;;6.18;1.50;;;;;;;;;;5049252;28;20073;-66
2022/04/09 13:10:50;;;;;;;6.80;1.75;;;;;;;;;;5049821;28;20044;-66
2022/04/09 13:13:20;;;;;;;5.55;2.00;;;;;;;;;;5049370;28;20362;-66
2022/04/09 13:15:47;;;;;;;6.28;2.00;;;;;;;;;;5047195;28;20116;-66
2022/04/09 13:18:13;;;;;;;10.63;2.30;;;;;;;;;;5048801;28;20048;-66
2022/04/09 13:20:39;;;;;;;7.50;1.88;;;;;;;;;;5050937;28;20033;-66
2022/04/09 13:23:07;;;;;;;5.50;1.65;;;;;;;;;;5043623;28;20041;-65
2022/04/09 13:25:33;;;;;;;8.18;1.45;;;;;;;;;;5054625;28;20041;-66
2022/04/09 13:27:59;;;;;;;6.45;1.42;;;;;;;;;;5048609;28;20420;-66
2022/04/09 13:30:26;;;;;;;7.13;1.10;;;;;;;;;;5046696;28;20124;-66
2022/04/09 13:32:56;;;;;;;7.38;1.50;;;;;;;;;;5051306;28;20051;-65
2022/04/09 13:35:25;;;;;;;5.15;1.60;;;;;;;;;;5049995;28;20460;-66
2022/04/09 13:37:51;;;;;;;5.35;1.25;;;;;;;;;;5046151;28;21038;-66
2022/04/09 13:40:17;;;;;;;4.97;1.35;;;;;;;;;;5051635;28;20045;-66
2022/04/09 13:42:44;;;;;;;7.85;1.85;;;;;;;;;;5049556;28;20785;-66
2022/04/09 13:45:11;;;;;;;7.60;1.40;;;;;;;;;;5047624;28;20045;-66
2022/04/09 13:47:37;;;;;;;4.75;1.67;;;;;;;;;;5048926;28;20485;-66
2022/04/09 13:50:03;;;;;;;6.10;1.15;;;;;;;;;;5050159;28;20116;-66
2022/04/09 13:52:29;;;;;;;6.28;1.67;;;;;;;;;;5049137;28;20083;-66
2022/04/09 13:54:56;;;;;;;7.13;0.95;;;;;;;;;;5048948;28;20033;-66
2022/04/09 13:57:22;;;;;;;6.05;1.00;;;;;;;;;;5049326;28;20056;-65
2022/04/09 13:59:48;;;;;;;4.10;1.27;;;;;;;;;;5049892;28;20044;-66
2022/04/09 14:02:15;;;;;;;4.05;1.00;;;;;;;;;;5047425;28;20046;-66
2022/04/09 14:04:41;;;;;;;4.88;1.35;;;;;;;;;;5049971;28;20041;-66
2022/04/09 14:07:07;;;;;;;4.35;1.02;;;;;;;;;;5051439;28;20102;-66
2022/04/09 14:09:33;;;;;;;3.80;1.00;;;;;;;;;;5047453;28;20078;-66
2022/04/09 14:11:59;;;;;;;6.43;1.45;;;;;;;;;;5048846;28;20041;-66
2022/04/09 14:14:26;;;;;;;5.13;1.17;;;;;;;;;;5049534;28;20045;-66
2022/04/09 14:16:53;;;;;;;7.05;1.60;;;;;;;;;;5047410;28;20045;-66
2022/04/09 14:19:19;;;;;;;5.75;1.58;;;;;;;;;;5045838;28;20109;-65
2022/04/09 14:21:45;;;;;;;9.57;1.85;;;;;;;;;;5049075;28;20052;-65
2022/04/09 14:24:11;;;;;;;11.20;1.60;;;;;;;;;;5053426;28;20048;-65
2022/04/09 14:26:37;;;;;;;5.28;1.33;;;;;;;;;;5045571;28;20041;-66
2022/04/09 14:29:04;;;;;;;8.35;1.55;;;;;;;;;;5050644;28;20037;-66
2022/04/09 14:31:31;;;;;;;7.70;1.60;;;;;;;;;;5046121;28;20041;-66
2022/04/09 14:33:57;;;;;;;8.45;1.63;;;;;;;;;;5048776;28;20049;-66
2022/04/09 14:36:23;;;;;;;6.65;1.60;;;;;;;;;;5046165;28;20433;-66
2022/04/09 14:38:49;;;;;;;5.60;1.30;;;;;;;;;;5047262;28;20040;-65
2022/04/09 14:41:16;;;;;;;2.90;1.00;;;;;;;;;;5049038;28;20516;-66